createdAt,value
2023-01-02T00:02:07.091Z,12.60
2023-01-02T00:07:10.935Z,12.43
2023-01-02T00:12:14.331Z,13.57
2023-01-02T00:17:20.656Z,13.32
2023-01-02T00:22:24.283Z,11.27
2023-01-02T00:27:27.670Z,12.20
2023-01-02T00:32:32.336Z,10.98
2023-01-02T00:37:35.731Z,9.60
2023-01-02T00:42:39.132Z,11.10
2023-01-02T00:47:43.830Z,10.75
2023-01-02T00:52:47.669Z,9.73
2023-01-02T00:57:51.304Z,12.00
2023-01-02T01:02:58.663Z,10.43
2023-01-02T01:08:02.533Z,9.85
2023-01-02T01:13:06.364Z,9.98
2023-01-02T01:18:11.106Z,10.07
2023-01-02T01:23:14.478Z,12.80
2023-01-02T01:28:17.940Z,8.32
2023-01-02T01:33:22.891Z,13.23
2023-01-02T01:38:26.266Z,11.00
2023-01-02T01:43:43.340Z,15.38
2023-01-02T01:48:51.165Z,15.63
2023-01-02T01:53:58.739Z,18.40
2023-01-02T01:59:02.699Z,17.85
2023-01-02T02:04:08.289Z,14.30
2023-01-02T02:09:17.910Z,13.27
2023-01-02T02:14:21.311Z,17.25
2023-01-02T02:20:02.328Z,17.88
2023-01-02T02:25:34.386Z,16.17
2023-01-02T02:30:41.622Z,13.75
2023-01-02T02:35:54.368Z,17.63
2023-01-02T02:41:06.802Z,15.10
2023-01-02T02:46:18.071Z,13.32
2023-01-02T02:51:31.476Z,17.33
2023-01-02T02:56:35.569Z,16.83
2023-01-02T03:01:40.356Z,14.32
2023-01-02T03:07:01.621Z,15.95
2023-01-02T03:12:14.057Z,15.32
2023-01-02T03:17:26.764Z,19.30
2023-01-02T03:22:34.885Z,14.70
2023-01-02T03:27:42.870Z,15.10
2023-01-02T03:32:52.019Z,15.25
2023-01-02T03:37:58.753Z,16.13
2023-01-02T03:43:08.249Z,17.20
2023-01-02T03:48:21.935Z,18.52
2023-01-02T03:53:26.092Z,15.98
2023-01-02T03:58:38.289Z,14.68
2023-01-02T04:03:50.400Z,20.20
2023-01-02T04:09:00.990Z,16.75
2023-01-02T04:14:11.402Z,15.70
2023-01-02T04:19:24.192Z,14.63
2023-01-02T04:24:32.360Z,13.15
2023-01-02T04:29:35.847Z,13.68
2023-01-02T04:34:43.199Z,13.82
2023-01-02T04:39:47.035Z,12.60
2023-01-02T04:44:50.432Z,12.10
2023-01-02T04:49:55.223Z,11.95
2023-01-02T04:54:58.626Z,11.25
2023-01-02T05:00:02.017Z,12.75
2023-01-02T05:05:08.415Z,13.05
2023-01-02T05:10:11.887Z,10.52
2023-01-02T05:15:15.318Z,6.72
2023-01-02T05:20:20.518Z,5.97
2023-01-02T05:25:23.982Z,5.90
2023-01-02T05:30:27.798Z,5.55
2023-01-02T05:35:33.595Z,6.25
2023-01-02T05:40:37.428Z,8.52
2023-01-02T05:45:40.846Z,8.30
2023-01-02T05:50:45.558Z,9.07
2023-01-02T05:55:48.961Z,9.30
2023-01-02T06:00:52.345Z,7.57
2023-01-02T06:05:57.203Z,6.85
2023-01-02T06:11:00.701Z,8.50
2023-01-02T06:16:05.862Z,10.25
2023-01-02T06:21:13.599Z,10.93
2023-01-02T06:26:19.214Z,9.50
2023-01-02T06:31:24.550Z,9.38
2023-01-02T06:36:31.608Z,11.07
2023-01-02T06:41:35.040Z,5.78
2023-01-02T06:46:38.931Z,9.15
2023-01-02T06:51:43.960Z,10.20
2023-01-02T06:56:47.337Z,9.07
2023-01-02T07:01:50.822Z,8.15
2023-01-02T07:06:55.739Z,7.47
2023-01-02T07:11:59.498Z,7.47
2023-01-02T07:17:03.222Z,9.70
2023-01-02T07:22:08.203Z,9.50
2023-01-02T07:27:11.601Z,12.32
2023-01-02T07:32:15.020Z,12.48
2023-01-02T07:37:20.037Z,8.63
2023-01-02T07:42:23.399Z,10.73
2023-01-02T07:47:27.066Z,9.95
2023-01-02T07:52:31.798Z,9.70
2023-01-02T07:57:35.154Z,12.10
2023-01-02T08:02:38.730Z,8.10
2023-01-02T08:07:45.212Z,7.93
2023-01-02T08:12:48.768Z,10.82
2023-01-02T08:17:52.440Z,8.40
2023-01-02T08:22:58.533Z,10.43
2023-01-02T08:28:01.920Z,11.77
2023-01-02T08:33:05.386Z,11.65
2023-01-02T08:38:10.135Z,9.73
2023-01-02T08:43:13.568Z,8.13
2023-01-02T08:48:21.017Z,10.75
2023-01-02T08:53:26.464Z,8.57
2023-01-02T08:58:30.134Z,7.97
2023-01-02T09:03:33.613Z,9.95
2023-01-02T09:08:38.406Z,11.80
2023-01-02T09:13:42.272Z,8.88
2023-01-02T09:18:45.747Z,11.18
2023-01-02T09:23:50.564Z,11.85
2023-01-02T09:28:54.264Z,9.60
2023-01-02T09:33:57.951Z,9.38
2023-01-02T09:39:03.422Z,10.57
2023-01-02T09:44:12.436Z,7.65
2023-01-02T09:49:19.343Z,8.57
2023-01-02T09:54:30.006Z,8.30
2023-01-02T09:59:37.311Z,7.95
2023-01-02T10:04:56.810Z,10.05
2023-01-02T10:10:07.101Z,11.15
2023-01-02T10:15:15.064Z,7.03
2023-01-02T10:20:26.376Z,10.98
2023-01-02T10:25:34.544Z,8.20
2023-01-02T10:30:44.798Z,6.80
2023-01-02T10:35:54.305Z,6.35
2023-01-02T10:40:59.387Z,5.55
2023-01-02T10:46:04.177Z,6.90
2023-01-02T10:51:15.482Z,7.78
2023-01-02T10:56:21.379Z,5.78
2023-01-02T11:01:24.975Z,7.85
2023-01-02T11:06:38.935Z,10.98
2023-01-02T11:11:51.183Z,5.78
2023-01-02T11:16:55.640Z,5.70
2023-01-02T11:22:00.037Z,7.32
2023-01-02T11:27:04.960Z,6.00
2023-01-02T11:32:08.741Z,8.05
2023-01-02T11:37:17.972Z,8.82
2023-01-02T11:42:46.573Z,9.05
2023-01-02T11:47:52.237Z,8.00
2023-01-02T11:53:00.226Z,9.13
2023-01-02T11:58:13.144Z,7.55
2023-01-02T12:08:40.381Z,7.82
2023-01-02T12:14:01.383Z,9.83
2023-01-02T12:19:29.771Z,9.77
2023-01-02T12:24:54.011Z,9.93
2023-01-02T12:30:08.294Z,13.02
2023-01-02T12:35:23.676Z,9.20
2023-01-02T12:40:53.132Z,10.38
2023-01-02T12:46:09.597Z,11.68
2023-01-02T12:51:20.713Z,10.75
2023-01-02T12:56:31.501Z,9.80
2023-01-02T13:01:41.162Z,9.40
2023-01-02T13:06:52.325Z,9.57
2023-01-02T13:12:02.250Z,11.30
2023-01-02T13:17:25.685Z,12.13
2023-01-02T13:22:37.745Z,11.43
2023-01-02T13:27:41.934Z,11.77
2023-01-02T13:32:49.264Z,10.13
2023-01-02T13:37:54.215Z,12.48
2023-01-02T13:43:00.462Z,12.27
2023-01-02T13:48:07.801Z,13.43
2023-01-02T13:53:30.173Z,11.32
2023-01-02T13:59:01.458Z,11.32
2023-01-02T14:04:41.734Z,12.60
2023-01-02T14:10:21.876Z,12.13
2023-01-02T14:15:27.306Z,12.80
2023-01-02T14:20:32.515Z,8.63
2023-01-02T14:25:48.920Z,9.13
2023-01-02T14:30:53.058Z,8.93
2023-01-02T14:35:58.775Z,10.70
2023-01-02T14:41:17.419Z,13.55
2023-01-02T14:46:23.984Z,12.40
2023-01-02T14:51:34.069Z,13.75
2023-01-02T14:56:42.436Z,10.02
2023-01-02T15:01:50.969Z,14.70
2023-01-02T15:07:10.511Z,19.95
2023-01-02T15:12:41.446Z,19.48
2023-01-02T15:17:48.212Z,12.52
2023-01-02T15:22:54.366Z,10.40
2023-01-02T15:27:59.126Z,10.55
2023-01-02T15:33:02.490Z,13.02
2023-01-02T15:38:19.343Z,11.48
2023-01-02T15:43:49.401Z,11.43
2023-01-02T15:48:53.955Z,13.05
2023-01-02T15:54:03.006Z,17.17
2023-01-02T15:59:29.671Z,16.20
2023-01-02T16:04:34.401Z,19.60
2023-01-02T16:09:39.076Z,16.48
2023-01-02T16:14:49.592Z,14.05
2023-01-02T16:19:58.811Z,11.55
2023-01-02T16:25:08.347Z,10.60
2023-01-02T16:30:41.108Z,11.98
2023-01-02T16:35:58.222Z,12.77
2023-01-02T16:41:08.407Z,14.10
2023-01-02T16:46:16.290Z,15.30
2023-01-02T16:51:19.854Z,14.23
2023-01-02T16:56:24.009Z,15.60
2023-01-02T17:01:28.848Z,20.73
2023-01-02T17:06:32.479Z,19.48
2023-01-02T17:11:36.058Z,22.60
2023-01-02T17:16:40.827Z,15.20
2023-01-02T17:21:44.239Z,17.08
2023-01-02T17:26:48.181Z,18.45
2023-01-02T17:31:52.939Z,21.45
2023-01-02T17:36:57.042Z,19.25
2023-01-02T17:42:00.438Z,19.33
2023-01-02T17:47:38.574Z,22.92
2023-01-02T17:52:28.917Z,20.90
2023-01-02T17:57:32.472Z,20.17
2023-01-02T18:02:37.440Z,21.38
2023-01-02T18:07:40.905Z,22.05
2023-01-02T18:12:45.232Z,22.98
2023-01-02T18:17:50.891Z,23.17
2023-01-02T18:22:54.596Z,25.02
2023-01-02T18:28:03.025Z,22.17
2023-01-02T18:33:15.807Z,24.90
2023-01-02T18:38:32.126Z,23.70
2023-01-02T18:43:36.529Z,24.58
2023-01-02T18:48:42.039Z,20.30
2023-01-02T18:53:48.690Z,21.88
2023-01-02T18:58:59.814Z,20.95
2023-01-02T19:04:26.752Z,21.58
2023-01-02T19:09:35.093Z,27.67
2023-01-02T19:14:40.732Z,22.42
2023-01-02T19:19:47.856Z,22.13
2023-01-02T19:24:51.586Z,21.67
2023-01-02T19:29:55.701Z,21.52
2023-01-02T19:35:03.336Z,24.63
2023-01-02T19:40:18.688Z,19.17
2023-01-02T19:45:24.681Z,24.23
2023-01-02T19:50:29.437Z,27.30
2023-01-02T19:55:36.745Z,29.23
2023-01-02T20:00:40.222Z,24.88
2023-01-02T20:05:45.006Z,21.52
2023-01-02T20:10:48.693Z,23.27
2023-01-02T20:15:53.209Z,25.95
2023-01-02T20:20:58.384Z,14.57
2023-01-02T20:26:01.733Z,8.57
2023-01-02T20:31:09.891Z,10.48
2023-01-02T20:36:14.945Z,8.45
2023-01-02T20:41:18.892Z,9.70
2023-01-02T20:46:22.871Z,10.10
2023-01-02T20:51:30.247Z,10.00
2023-01-02T20:56:34.072Z,9.85
2023-01-02T21:01:37.851Z,11.15
2023-01-02T21:06:42.759Z,12.57
2023-01-02T21:11:46.466Z,12.75
2023-01-02T21:16:50.085Z,16.23
2023-01-02T21:21:54.842Z,15.50
2023-01-02T21:26:58.230Z,14.32
2023-01-02T21:32:01.581Z,12.85
2023-01-02T21:37:07.811Z,13.48
2023-01-02T21:42:17.373Z,12.10
2023-01-02T21:47:21.449Z,9.52
2023-01-02T21:52:26.555Z,11.60
2023-01-02T21:58:02.555Z,15.35
2023-01-02T22:02:53.706Z,12.10
2023-01-02T22:07:59.563Z,12.52
2023-01-02T22:13:02.981Z,10.43
2023-01-02T22:18:06.509Z,10.90
2023-01-02T22:23:11.247Z,13.60
2023-01-02T22:28:14.933Z,9.68
2023-01-02T22:33:18.732Z,13.80
2023-01-02T22:38:23.764Z,13.85
2023-01-02T22:43:28.932Z,12.80
2023-01-02T22:48:36.938Z,10.80
2023-01-02T22:53:42.414Z,10.48
2023-01-02T22:58:47.094Z,11.65
2023-01-02T23:03:50.955Z,13.38
2023-01-02T23:08:56.044Z,12.20
2023-01-02T23:13:59.472Z,10.77
2023-01-02T23:19:18.937Z,9.10
2023-01-02T23:24:26.009Z,10.00
2023-01-02T23:29:30.170Z,10.73
2023-01-02T23:34:33.777Z,12.07
2023-01-02T23:39:38.637Z,10.52
2023-01-02T23:44:44.001Z,11.73
2023-01-02T23:49:47.383Z,11.63
2023-01-02T23:54:52.166Z,13.40
2023-01-02T23:59:55.800Z,10.48
